createdAt,value
2019-01-29T00:00:53.643Z,37.51
2019-01-29T00:01:53.798Z,37.41
2019-01-29T00:02:53.643Z,37.30
2019-01-29T00:03:53.611Z,37.30
2019-01-29T00:04:53.653Z,37.71
2019-01-29T00:05:53.573Z,37.51
2019-01-29T00:06:53.563Z,38.31
2019-01-29T00:07:53.554Z,37.91
2019-01-29T00:08:53.541Z,38.21
2019-01-29T00:09:53.577Z,37.30
2019-01-29T00:10:53.531Z,37.91
2019-01-29T00:11:53.524Z,37.21
2019-01-29T00:12:53.500Z,38.31
2019-01-29T00:13:53.496Z,37.30
2019-01-29T00:14:53.549Z,37.61
2019-01-29T00:15:53.484Z,37.81
2019-01-29T00:16:53.467Z,38.62
2019-01-29T00:17:53.470Z,37.91
2019-01-29T00:18:53.467Z,37.91
2019-01-29T00:19:53.518Z,37.51
2019-01-29T00:20:53.453Z,37.21
2019-01-29T00:21:53.437Z,38.21
2019-01-29T00:22:53.443Z,37.30
2019-01-29T00:23:53.511Z,37.81
2019-01-29T00:24:53.462Z,38.11
2019-01-29T00:25:53.394Z,37.41
2019-01-29T00:26:53.388Z,37.30
2019-01-29T00:27:53.341Z,37.41
2019-01-29T00:28:53.322Z,37.30
2019-01-29T00:29:53.529Z,37.51
2019-01-29T00:30:53.301Z,37.51
2019-01-29T00:31:53.300Z,38.21
2019-01-29T00:32:53.310Z,37.30
2019-01-29T00:33:53.266Z,37.51
2019-01-29T00:34:53.295Z,37.30
2019-01-29T00:35:53.265Z,37.51
2019-01-29T00:36:53.233Z,38.11
2019-01-29T00:37:53.232Z,37.30
2019-01-29T00:38:53.214Z,37.30
2019-01-29T00:39:53.235Z,37.21
2019-01-29T00:40:53.412Z,37.30
2019-01-29T00:41:53.179Z,37.61
2019-01-29T00:42:53.199Z,37.30
2019-01-29T00:43:53.169Z,37.41
2019-01-29T00:44:53.183Z,37.91
2019-01-29T00:45:53.152Z,37.41
2019-01-29T00:46:53.138Z,37.30
2019-01-29T00:47:53.176Z,37.81
2019-01-29T00:48:53.104Z,37.61
2019-01-29T00:49:53.131Z,37.30
2019-01-29T00:50:53.113Z,37.91
2019-01-29T00:51:53.085Z,37.61
2019-01-29T00:52:53.089Z,36.50
2019-01-29T00:53:53.050Z,37.30
2019-01-29T00:54:53.079Z,37.30
2019-01-29T00:55:53.045Z,37.71
2019-01-29T00:56:53.095Z,37.91
2019-01-29T00:57:53.028Z,37.43
2019-01-29T00:58:53.016Z,37.71
2019-01-29T00:59:52.988Z,37.81
2019-01-29T01:00:52.988Z,37.41
2019-01-29T01:01:52.961Z,37.51
2019-01-29T01:02:52.955Z,37.91
2019-01-29T01:03:52.944Z,37.91
2019-01-29T01:04:52.934Z,37.71
2019-01-29T01:05:52.918Z,37.71
2019-01-29T01:06:52.910Z,37.51
2019-01-29T01:07:52.902Z,37.21
2019-01-29T01:08:52.890Z,36.90
2019-01-29T01:09:57.213Z,37.51
2019-01-29T01:10:52.869Z,36.50
2019-01-29T01:11:52.893Z,38.01
2019-01-29T01:12:52.843Z,37.30
2019-01-29T01:13:52.832Z,37.41
2019-01-29T01:14:52.841Z,38.01
2019-01-29T01:15:52.850Z,37.30
2019-01-29T01:16:52.813Z,37.10
2019-01-29T01:17:52.836Z,37.30
2019-01-29T01:18:52.810Z,38.11
2019-01-29T01:19:52.795Z,37.51
2019-01-29T01:20:52.867Z,37.51
2019-01-29T01:21:52.783Z,37.30
2019-01-29T01:22:52.763Z,37.30
2019-01-29T01:23:52.761Z,37.51
2019-01-29T01:24:52.745Z,37.30
2019-01-29T01:25:52.799Z,37.91
2019-01-29T01:26:52.739Z,37.91
2019-01-29T01:27:52.691Z,37.30
2019-01-29T01:28:52.676Z,37.51
2019-01-29T01:29:52.664Z,37.71
2019-01-29T01:30:52.682Z,37.41
2019-01-29T01:31:52.643Z,37.51
2019-01-29T01:32:52.629Z,37.61
2019-01-29T01:33:52.687Z,37.91
2019-01-29T01:34:52.658Z,37.30
2019-01-29T01:35:52.631Z,37.51
2019-01-29T01:36:52.600Z,37.30
2019-01-29T01:37:52.578Z,37.30
2019-01-29T01:38:52.567Z,37.41
2019-01-29T01:39:52.573Z,37.51
2019-01-29T01:40:52.579Z,36.60
2019-01-29T01:41:52.613Z,37.10
2019-01-29T01:42:52.524Z,37.51
2019-01-29T01:43:52.511Z,37.10
2019-01-29T01:44:52.500Z,37.61
2019-01-29T01:45:52.522Z,37.30
2019-01-29T01:46:52.475Z,37.41
2019-01-29T01:47:52.461Z,37.30
2019-01-29T01:48:52.455Z,36.90
2019-01-29T01:49:52.450Z,37.41
2019-01-29T01:50:52.498Z,37.71
2019-01-29T01:51:52.421Z,37.21
2019-01-29T01:52:59.092Z,37.41
2019-01-29T01:53:52.401Z,37.71
2019-01-29T01:54:52.422Z,37.51
2019-01-29T01:55:52.410Z,37.91
2019-01-29T01:56:52.365Z,38.11
2019-01-29T01:57:52.358Z,37.10
2019-01-29T01:58:52.337Z,37.81
2019-01-29T01:59:52.342Z,37.30
2019-01-29T02:00:52.355Z,37.61
2019-01-29T02:01:52.304Z,37.51
2019-01-29T02:02:52.307Z,36.50
2019-01-29T02:03:52.290Z,37.30
2019-01-29T02:04:52.351Z,38.11
2019-01-29T02:05:52.314Z,37.01
2019-01-29T02:06:52.316Z,36.40
2019-01-29T02:07:52.242Z,36.90
2019-01-29T02:08:52.232Z,37.91
2019-01-29T02:09:52.241Z,37.71
2019-01-29T02:10:52.263Z,37.10
2019-01-29T02:11:52.201Z,36.50
2019-01-29T02:12:52.203Z,37.21
2019-01-29T02:13:52.177Z,37.81
2019-01-29T02:14:52.165Z,37.30
2019-01-29T02:15:52.186Z,37.71
2019-01-29T02:16:52.148Z,38.01
2019-01-29T02:17:52.394Z,36.90
2019-01-29T02:18:52.151Z,38.01
2019-01-29T02:19:52.148Z,37.81
2019-01-29T02:20:52.247Z,36.60
2019-01-29T02:21:52.198Z,37.30
2019-01-29T02:22:52.126Z,37.10
2019-01-29T02:24:02.108Z,37.21
2019-01-29T02:24:52.085Z,36.40
2019-01-29T02:25:52.170Z,37.30
2019-01-29T02:26:52.117Z,37.21
2019-01-29T02:27:52.023Z,37.01
2019-01-29T02:28:52.020Z,37.21
2019-01-29T02:29:52.022Z,36.90
2019-01-29T02:30:52.007Z,36.80
2019-01-29T02:31:51.987Z,37.21
2019-01-29T02:32:51.976Z,37.61
2019-01-29T02:33:51.959Z,37.21
2019-01-29T02:34:51.954Z,36.40
2019-01-29T02:35:51.959Z,36.50
2019-01-29T02:36:51.942Z,37.10
2019-01-29T02:37:51.934Z,36.90
2019-01-29T02:38:51.903Z,36.80
2019-01-29T02:39:51.956Z,36.80
2019-01-29T02:40:51.921Z,36.20
2019-01-29T02:41:51.883Z,37.41
2019-01-29T02:42:51.870Z,37.71
2019-01-29T02:43:51.871Z,36.60
2019-01-29T02:44:52.066Z,36.50
2019-01-29T02:45:51.846Z,36.90
2019-01-29T02:46:51.877Z,36.80
2019-01-29T02:47:51.879Z,37.71
2019-01-29T02:48:51.805Z,36.70
2019-01-29T02:49:51.905Z,37.21
2019-01-29T02:50:51.776Z,36.70
2019-01-29T02:51:51.820Z,36.60
2019-01-29T02:52:51.761Z,37.30
2019-01-29T02:53:51.752Z,36.80
2019-01-29T02:54:51.731Z,36.60
2019-01-29T02:55:51.728Z,36.90
2019-01-29T02:56:51.784Z,37.10
2019-01-29T02:57:51.719Z,37.61
2019-01-29T02:58:51.686Z,36.70
2019-01-29T02:59:52.305Z,36.90
2019-01-29T03:00:51.671Z,36.50
2019-01-29T03:01:51.698Z,36.70
2019-01-29T03:02:51.657Z,37.30
2019-01-29T03:03:51.639Z,37.10
2019-01-29T03:04:53.435Z,36.40
2019-01-29T03:05:51.666Z,36.60
2019-01-29T03:06:51.647Z,36.40
2019-01-29T03:07:51.633Z,36.90
2019-01-29T03:08:51.574Z,36.90
2019-01-29T03:09:51.564Z,36.60
2019-01-29T03:10:51.564Z,36.80
2019-01-29T03:11:51.594Z,36.50
2019-01-29T03:12:51.547Z,36.50
2019-01-29T03:13:51.521Z,36.40
2019-01-29T03:14:51.537Z,36.80
2019-01-29T03:15:51.509Z,36.30
2019-01-29T03:16:51.531Z,36.70
2019-01-29T03:17:51.529Z,36.70
2019-01-29T03:18:51.534Z,37.21
2019-01-29T03:20:51.586Z,36.50
2019-01-29T03:22:01.543Z,37.10
2019-01-29T03:22:51.462Z,37.01
2019-01-29T03:23:51.492Z,36.70
2019-01-29T03:24:51.414Z,37.10
2019-01-29T03:25:51.427Z,36.70
2019-01-29T03:26:51.529Z,36.70
2019-01-29T03:27:51.370Z,37.12
2019-01-29T03:28:51.363Z,38.01
2019-01-29T03:29:51.353Z,37.21
2019-01-29T03:30:51.382Z,36.42
2019-01-29T03:31:51.413Z,36.80
2019-01-29T03:32:51.326Z,37.93
2019-01-29T03:33:51.306Z,36.72
2019-01-29T03:34:51.292Z,36.82
2019-01-29T03:35:51.293Z,36.70
2019-01-29T03:36:51.305Z,37.12
2019-01-29T03:37:51.273Z,36.62
2019-01-29T03:38:51.291Z,36.52
2019-01-29T03:39:51.240Z,37.23
2019-01-29T03:40:51.241Z,36.52
2019-01-29T03:41:51.270Z,37.23
2019-01-29T03:42:51.232Z,37.52
2019-01-29T03:43:51.230Z,37.73
2019-01-29T03:44:51.234Z,37.12
2019-01-29T03:45:54.192Z,37.12
2019-01-29T03:46:51.239Z,36.52
2019-01-29T03:47:51.150Z,36.72
2019-01-29T03:48:51.183Z,36.42
2019-01-29T03:49:54.165Z,36.72
2019-01-29T03:50:51.122Z,37.12
2019-01-29T03:51:51.148Z,36.82
2019-01-29T03:52:51.105Z,36.92
2019-01-29T03:53:51.085Z,37.63
2019-01-29T03:54:51.100Z,36.52
2019-01-29T03:55:51.086Z,37.52
2019-01-29T03:56:51.109Z,37.73
2019-01-29T03:57:51.066Z,37.73
2019-01-29T03:58:51.038Z,36.72
2019-01-29T03:59:51.073Z,36.62
2019-01-29T04:00:51.014Z,36.82
2019-01-29T04:01:51.035Z,37.23
2019-01-29T04:02:52.027Z,38.03
2019-01-29T04:03:50.989Z,36.72
2019-01-29T04:04:50.973Z,36.82
2019-01-29T04:05:50.976Z,36.32
2019-01-29T04:06:50.990Z,37.23
2019-01-29T04:07:50.951Z,37.02
2019-01-29T04:08:50.927Z,36.52
2019-01-29T04:09:50.976Z,37.32
2019-01-29T04:10:51.559Z,37.32
2019-01-29T04:11:50.999Z,37.63
2019-01-29T04:12:50.891Z,37.32
2019-01-29T04:13:51.078Z,36.72
2019-01-29T04:14:50.882Z,37.93
2019-01-29T04:15:50.864Z,37.32
2019-01-29T04:16:50.843Z,37.73
2019-01-29T04:17:50.861Z,37.63
2019-01-29T04:18:50.871Z,36.92
2019-01-29T04:19:50.881Z,37.32
2019-01-29T04:20:50.827Z,36.32
2019-01-29T04:21:50.864Z,36.82
2019-01-29T04:22:50.794Z,37.23
2019-01-29T04:23:50.788Z,36.92
2019-01-29T04:24:50.788Z,37.73
2019-01-29T04:25:50.790Z,37.32
2019-01-29T04:26:50.781Z,37.52
2019-01-29T04:27:50.732Z,37.63
2019-01-29T04:28:50.712Z,37.32
2019-01-29T04:29:50.699Z,37.52
2019-01-29T04:30:50.683Z,37.71
2019-01-29T04:31:50.676Z,37.30
2019-01-29T04:32:50.706Z,37.91
2019-01-29T04:33:50.656Z,37.41
2019-01-29T04:34:50.647Z,38.01
2019-01-29T04:35:50.631Z,36.50
2019-01-29T04:36:51.971Z,36.70
2019-01-29T04:37:50.656Z,37.30
2019-01-29T04:38:50.617Z,37.51
2019-01-29T04:39:50.593Z,37.71
2019-01-29T04:40:50.588Z,37.41
2019-01-29T04:41:50.570Z,37.51
2019-01-29T04:42:50.588Z,37.41
2019-01-29T04:43:50.545Z,36.60
2019-01-29T04:44:50.535Z,36.70
2019-01-29T04:45:50.521Z,36.50
2019-01-29T04:46:50.510Z,37.30
2019-01-29T04:47:50.538Z,36.80
2019-01-29T04:48:50.487Z,37.51
2019-01-29T04:49:50.478Z,37.61
2019-01-29T04:50:50.487Z,36.50
2019-01-29T04:51:50.452Z,36.70
2019-01-29T04:52:50.489Z,36.90
2019-01-29T04:53:57.202Z,36.40
2019-01-29T04:54:50.436Z,36.70
2019-01-29T04:55:50.423Z,36.50
2019-01-29T04:56:50.445Z,37.10
2019-01-29T04:57:50.431Z,36.50
2019-01-29T04:58:51.398Z,37.10
2019-01-29T04:59:50.379Z,36.60
2019-01-29T05:00:50.543Z,37.21
2019-01-29T05:01:50.348Z,37.10
2019-01-29T05:02:50.405Z,36.40
2019-01-29T05:03:50.333Z,37.30
2019-01-29T05:04:50.315Z,37.01
2019-01-29T05:05:50.312Z,36.40
2019-01-29T05:06:50.291Z,37.10
2019-01-29T05:07:50.336Z,36.80
2019-01-29T05:08:50.274Z,36.40
2019-01-29T05:09:50.257Z,36.80
2019-01-29T05:10:50.249Z,36.40
2019-01-29T05:11:50.246Z,36.89
2019-01-29T05:12:50.282Z,37.30
2019-01-29T05:13:50.418Z,36.40
2019-01-29T05:14:50.207Z,36.90
2019-01-29T05:15:50.221Z,37.01
2019-01-29T05:16:50.203Z,36.70
2019-01-29T05:17:50.279Z,36.79
2019-01-29T05:18:50.192Z,36.70
2019-01-29T05:19:50.148Z,36.90
2019-01-29T05:20:50.168Z,36.58
2019-01-29T05:21:50.170Z,37.29
2019-01-29T05:22:50.223Z,36.70
2019-01-29T05:23:50.165Z,36.60
2019-01-29T05:24:50.137Z,37.08
2019-01-29T05:25:50.127Z,36.60
2019-01-29T05:26:50.108Z,37.01
2019-01-29T05:27:50.115Z,36.20
2019-01-29T05:28:50.061Z,36.60
2019-01-29T05:29:50.043Z,36.60
2019-01-29T05:30:50.032Z,36.70
2019-01-29T05:31:50.018Z,37.19
2019-01-29T05:32:50.056Z,36.18
2019-01-29T05:33:50.016Z,36.99
2019-01-29T05:34:49.991Z,36.80
2019-01-29T05:35:49.984Z,36.80
2019-01-29T05:36:49.979Z,36.50
2019-01-29T05:37:49.990Z,36.40
2019-01-29T05:38:49.951Z,37.71
2019-01-29T05:39:51.169Z,36.40
2019-01-29T05:40:49.934Z,36.30
2019-01-29T05:41:49.912Z,36.60
2019-01-29T05:42:49.952Z,36.70
2019-01-29T05:43:49.903Z,36.70
2019-01-29T05:44:49.882Z,36.50
2019-01-29T05:45:49.917Z,36.50
2019-01-29T05:46:49.864Z,36.90
2019-01-29T05:47:49.926Z,36.50
2019-01-29T05:48:49.848Z,36.60
2019-01-29T05:49:49.843Z,36.60
2019-01-29T05:50:49.813Z,36.70
2019-01-29T05:51:49.819Z,36.80
2019-01-29T05:52:49.794Z,36.70
2019-01-29T05:53:50.295Z,36.80
2019-01-29T05:54:49.788Z,36.60
2019-01-29T05:55:49.760Z,36.70
2019-01-29T05:56:50.007Z,36.90
2019-01-29T05:57:49.737Z,37.10
2019-01-29T05:58:49.737Z,37.01
2019-01-29T05:59:49.721Z,37.61
2019-01-29T06:00:49.763Z,36.40
2019-01-29T06:01:49.709Z,36.60
2019-01-29T06:02:49.692Z,36.40
2019-01-29T06:03:49.713Z,36.60
2019-01-29T06:04:49.665Z,36.90
2019-01-29T06:05:49.665Z,36.90
2019-01-29T06:06:49.637Z,36.50
2019-01-29T06:07:49.904Z,37.10
2019-01-29T06:08:49.658Z,36.70
2019-01-29T06:09:49.639Z,36.80
2019-01-29T06:10:49.601Z,36.70
2019-01-29T06:11:49.584Z,36.80
2019-01-29T06:12:49.566Z,36.90
2019-01-29T06:13:49.596Z,36.30
2019-01-29T06:14:49.575Z,36.40
2019-01-29T06:15:49.571Z,36.50
2019-01-29T06:16:49.540Z,36.80
2019-01-29T06:17:49.575Z,36.60
2019-01-29T06:18:49.733Z,37.01
2019-01-29T06:19:49.530Z,36.60
2019-01-29T06:20:49.547Z,36.40
2019-01-29T06:21:49.611Z,36.40
2019-01-29T06:22:49.523Z,36.40
2019-01-29T06:23:49.611Z,37.01
2019-01-29T06:24:49.496Z,34.79
2019-01-29T06:25:49.484Z,35.63
2019-01-29T06:26:49.434Z,36.77
2019-01-29T06:27:49.430Z,36.61
2019-01-29T06:28:49.492Z,37.95
2019-01-29T06:29:49.394Z,38.17
2019-01-29T06:30:49.389Z,39.00
2019-01-29T06:31:49.417Z,39.84
2019-01-29T06:32:49.352Z,40.67
2019-01-29T06:33:49.374Z,40.69
2019-01-29T06:34:49.337Z,41.00
2019-01-29T06:35:49.324Z,40.91
2019-01-29T06:36:50.915Z,41.44
2019-01-29T06:37:49.312Z,41.34
2019-01-29T06:38:49.320Z,41.64
2019-01-29T06:39:49.286Z,40.85
2019-01-29T06:40:49.277Z,41.86
2019-01-29T06:41:49.260Z,42.60
2019-01-29T06:42:51.113Z,41.68
2019-01-29T06:43:49.270Z,41.78
2019-01-29T06:44:49.302Z,41.88
2019-01-29T06:45:49.342Z,41.28
2019-01-29T06:46:49.214Z,41.60
2019-01-29T06:47:49.249Z,41.70
2019-01-29T06:48:49.229Z,41.91
2019-01-29T06:49:49.172Z,41.70
2019-01-29T06:50:49.163Z,42.11
2019-01-29T06:51:49.148Z,41.80
2019-01-29T06:52:49.140Z,41.93
2019-01-29T06:53:49.164Z,42.00
2019-01-29T06:54:49.135Z,41.93
2019-01-29T06:55:49.104Z,41.72
2019-01-29T06:56:49.112Z,41.93
2019-01-29T06:57:55.042Z,41.21
2019-01-29T06:58:49.094Z,41.84
2019-01-29T06:59:49.071Z,41.03
2019-01-29T07:00:49.065Z,41.84
2019-01-29T07:01:49.047Z,41.96
2019-01-29T07:02:49.038Z,42.35
2019-01-29T07:03:49.049Z,43.98
2019-01-29T07:04:49.019Z,42.13
2019-01-29T07:05:49.002Z,42.43
2019-01-29T07:06:48.989Z,41.42
2019-01-29T07:07:48.988Z,41.21
2019-01-29T07:08:49.006Z,41.72
2019-01-29T07:09:48.966Z,42.33
2019-01-29T07:10:48.936Z,42.21
2019-01-29T07:11:48.939Z,42.39
2019-01-29T07:12:48.920Z,42.98
2019-01-29T07:13:48.952Z,42.27
2019-01-29T07:14:48.921Z,41.42
2019-01-29T07:15:48.894Z,40.91
2019-01-29T07:16:48.880Z,40.69
2019-01-29T07:17:48.919Z,40.69
2019-01-29T07:18:49.077Z,40.67
2019-01-29T07:19:48.911Z,39.24
2019-01-29T07:20:48.893Z,39.34
2019-01-29T07:21:48.875Z,39.02
2019-01-29T07:22:48.884Z,38.90
2019-01-29T07:23:48.962Z,38.90
2019-01-29T07:24:48.826Z,38.19
2019-01-29T07:25:48.839Z,38.17
2019-01-29T07:26:48.861Z,38.98
2019-01-29T07:27:48.865Z,39.08
2019-01-29T07:28:48.780Z,38.96
2019-01-29T07:29:48.772Z,38.96
2019-01-29T07:30:48.787Z,39.04
2019-01-29T07:31:48.769Z,39.04
2019-01-29T07:32:48.708Z,38.64
2019-01-29T07:33:48.694Z,38.84
2019-01-29T07:34:48.861Z,38.84
2019-01-29T07:35:48.686Z,38.42
2019-01-29T07:36:48.919Z,38.62
2019-01-29T07:37:48.646Z,38.32
2019-01-29T07:38:48.651Z,38.52
2019-01-29T07:39:48.736Z,37.92
2019-01-29T07:40:48.758Z,38.40
2019-01-29T07:41:48.639Z,38.30
2019-01-29T07:42:48.583Z,37.60
2019-01-29T07:43:48.584Z,37.49
2019-01-29T07:44:48.647Z,39.09
2019-01-29T07:45:48.637Z,37.98
2019-01-29T07:46:48.658Z,38.08
2019-01-29T07:47:48.580Z,37.48
2019-01-29T07:48:48.555Z,37.78
2019-01-29T07:49:48.587Z,38.27
2019-01-29T07:50:48.554Z,38.17
2019-01-29T07:51:48.660Z,37.36
2019-01-29T07:52:48.565Z,38.37
2019-01-29T07:53:48.516Z,37.96
2019-01-29T07:54:51.244Z,38.17
2019-01-29T07:55:48.683Z,37.56
2019-01-29T07:56:48.630Z,37.26
2019-01-29T07:57:48.622Z,37.26
2019-01-29T07:58:49.369Z,37.87
2019-01-29T07:59:48.436Z,36.94
2019-01-29T08:00:48.502Z,38.27
2019-01-29T08:01:48.494Z,37.54
2019-01-29T08:02:48.381Z,37.24
2019-01-29T08:03:48.458Z,36.74
2019-01-29T08:04:58.559Z,38.25
2019-01-29T08:05:48.887Z,37.85
2019-01-29T08:06:48.550Z,37.95
2019-01-29T08:07:48.323Z,37.85
2019-01-29T08:08:48.334Z,36.74
2019-01-29T08:09:48.308Z,36.62
2019-01-29T08:10:48.369Z,36.42
2019-01-29T08:11:48.282Z,36.33
2019-01-29T08:12:48.263Z,35.51
2019-01-29T08:13:48.313Z,36.42
2019-01-29T08:14:48.308Z,36.02
2019-01-29T08:15:48.691Z,35.21
2019-01-29T08:16:47.254Z,36.22
2019-01-29T08:17:58.265Z,35.51
2019-01-29T08:18:49.956Z,36.22
2019-01-29T08:19:49.234Z,36.52
2019-01-29T08:20:48.328Z,36.62
2019-01-29T08:21:48.229Z,36.62
2019-01-29T08:22:48.196Z,36.72
2019-01-29T08:23:48.243Z,36.82
2019-01-29T08:24:51.910Z,36.72
2019-01-29T08:25:48.347Z,36.42
2019-01-29T08:26:48.521Z,36.52
2019-01-29T08:27:48.159Z,36.72
2019-01-29T08:28:48.145Z,36.72
2019-01-29T08:29:48.121Z,37.52
2019-01-29T08:30:48.218Z,36.62
2019-01-29T08:31:48.092Z,38.33
2019-01-29T08:32:48.124Z,38.03
2019-01-29T08:33:48.082Z,37.93
2019-01-29T08:34:48.027Z,37.21
2019-01-29T08:35:48.090Z,38.51
2019-01-29T08:36:48.093Z,37.81
2019-01-29T08:37:48.249Z,38.21
2019-01-29T08:38:48.208Z,39.12
2019-01-29T08:39:47.976Z,37.29
2019-01-29T08:40:48.006Z,36.89
2019-01-29T08:41:47.957Z,37.79
2019-01-29T08:42:47.963Z,37.29
2019-01-29T08:43:47.942Z,38.90
2019-01-29T08:44:51.307Z,38.40
2019-01-29T08:45:47.929Z,37.69
2019-01-29T08:46:47.898Z,38.18
2019-01-29T08:47:47.904Z,37.47
2019-01-29T08:48:47.883Z,38.98
2019-01-29T08:49:47.916Z,37.67
2019-01-29T08:50:47.857Z,38.36
2019-01-29T08:51:47.843Z,37.77
2019-01-29T08:52:48.331Z,38.76
2019-01-29T08:53:47.821Z,38.16
2019-01-29T08:54:47.813Z,37.85
2019-01-29T08:55:47.805Z,38.46
2019-01-29T08:56:47.918Z,37.85
2019-01-29T08:57:54.458Z,37.55
2019-01-29T08:58:47.800Z,38.26
2019-01-29T08:59:47.750Z,37.44
2019-01-29T09:00:57.745Z,38.16
2019-01-29T09:01:47.790Z,37.76
2019-01-29T09:02:48.110Z,37.35
2019-01-29T09:03:47.746Z,37.55
2019-01-29T09:04:48.148Z,38.06
2019-01-29T09:05:47.697Z,38.96
2019-01-29T09:06:47.713Z,38.56
2019-01-29T09:07:47.945Z,38.44
2019-01-29T09:08:48.720Z,38.86
2019-01-29T09:09:47.689Z,38.94
2019-01-29T09:10:47.674Z,39.04
2019-01-29T09:11:47.870Z,38.24
2019-01-29T09:12:47.618Z,38.54
2019-01-29T09:13:47.643Z,38.64
2019-01-29T09:14:47.587Z,38.24
2019-01-29T09:15:47.579Z,37.63
2019-01-29T09:16:47.646Z,38.84
2019-01-29T09:17:47.643Z,38.76
2019-01-29T09:18:47.601Z,38.94
2019-01-29T09:19:47.879Z,37.76
2019-01-29T09:20:47.567Z,37.44
2019-01-29T09:21:47.710Z,38.74
2019-01-29T09:22:47.528Z,37.46
2019-01-29T09:23:47.545Z,34.94
2019-01-29T09:24:47.564Z,35.05
2019-01-29T09:25:47.521Z,36.45
2019-01-29T09:26:47.611Z,37.55
2019-01-29T09:27:47.506Z,36.55
2019-01-29T09:28:47.768Z,37.96
2019-01-29T09:29:47.511Z,37.85
2019-01-29T09:30:49.460Z,37.85
2019-01-29T09:31:48.001Z,37.46
2019-01-29T09:32:47.666Z,36.95
2019-01-29T09:33:50.527Z,36.35
2019-01-29T09:34:47.484Z,37.65
2019-01-29T09:35:47.621Z,37.85
2019-01-29T09:36:47.402Z,38.06
2019-01-29T09:37:47.369Z,37.76
2019-01-29T09:38:47.398Z,37.55
2019-01-29T09:39:47.643Z,37.65
2019-01-29T09:40:47.369Z,38.26
2019-01-29T09:41:47.333Z,39.36
2019-01-29T09:42:47.412Z,38.66
2019-01-29T09:43:47.398Z,37.26
2019-01-29T09:44:47.348Z,36.45
2019-01-29T09:45:47.266Z,38.36
2019-01-29T09:46:47.392Z,38.36
2019-01-29T09:47:47.405Z,37.96
2019-01-29T09:48:47.265Z,38.16
2019-01-29T09:49:47.215Z,39.34
2019-01-29T09:50:47.204Z,38.62
2019-01-29T09:51:47.227Z,38.82
2019-01-29T09:52:47.206Z,38.82
2019-01-29T09:53:47.482Z,38.22
2019-01-29T09:54:47.238Z,37.60
2019-01-29T09:55:48.753Z,39.11
2019-01-29T09:56:47.580Z,38.20
2019-01-29T09:57:50.426Z,38.20
2019-01-29T09:58:47.234Z,38.70
2019-01-29T09:59:47.128Z,38.20
2019-01-29T10:00:47.134Z,37.60
2019-01-29T10:01:47.699Z,37.60
2019-01-29T10:02:47.092Z,38.51
2019-01-29T10:03:47.403Z,37.50
2019-01-29T10:04:47.187Z,38.49
2019-01-29T10:05:47.347Z,37.68
2019-01-29T10:06:47.537Z,37.59
2019-01-29T10:07:47.711Z,37.68
2019-01-29T10:08:47.451Z,37.68
2019-01-29T10:09:47.200Z,37.66
2019-01-29T10:10:47.462Z,37.87
2019-01-29T10:11:47.143Z,38.07
2019-01-29T10:12:47.089Z,37.66
2019-01-29T10:13:47.583Z,37.77
2019-01-29T10:14:46.947Z,37.66
2019-01-29T10:15:47.257Z,37.66
2019-01-29T10:16:47.223Z,38.17
2019-01-29T10:17:47.459Z,37.75
2019-01-29T10:18:47.182Z,38.15
2019-01-29T10:19:48.243Z,37.93
2019-01-29T10:20:47.118Z,37.33
2019-01-29T10:21:47.044Z,37.33
2019-01-29T10:22:47.154Z,37.03
2019-01-29T10:23:47.219Z,37.21
2019-01-29T10:24:47.397Z,37.71
2019-01-29T10:25:47.065Z,37.11
2019-01-29T10:26:46.957Z,37.11
2019-01-29T10:27:46.844Z,37.29
2019-01-29T10:28:46.914Z,37.59
2019-01-29T10:29:47.848Z,36.99
2019-01-29T10:30:46.831Z,37.59
2019-01-29T10:31:46.851Z,36.40
2019-01-29T10:32:47.478Z,36.40
2019-01-29T10:33:46.778Z,37.10
2019-01-29T10:34:46.932Z,36.79
2019-01-29T10:35:46.765Z,36.88
2019-01-29T10:36:46.763Z,36.08
2019-01-29T10:37:46.771Z,36.18
2019-01-29T10:38:46.748Z,36.28
2019-01-29T10:39:47.911Z,36.18
2019-01-29T10:40:46.678Z,36.58
2019-01-29T10:41:46.678Z,35.96
2019-01-29T10:42:46.684Z,36.16
2019-01-29T10:43:46.632Z,36.26
2019-01-29T10:44:46.630Z,36.26
2019-01-29T10:45:46.603Z,36.56
2019-01-29T10:46:46.720Z,36.64
2019-01-29T10:47:46.646Z,36.54
2019-01-29T10:48:46.687Z,36.54
2019-01-29T10:49:46.579Z,36.04
2019-01-29T10:50:46.588Z,35.64
2019-01-29T10:51:46.544Z,36.15
2019-01-29T10:52:46.555Z,36.74
2019-01-29T10:53:47.760Z,35.13
2019-01-29T10:54:46.506Z,35.74
2019-01-29T10:55:47.624Z,35.54
2019-01-29T10:56:46.500Z,35.13
2019-01-29T10:57:56.769Z,35.03
2019-01-29T10:58:46.465Z,35.13
2019-01-29T10:59:46.735Z,34.93
2019-01-29T11:00:46.520Z,34.83
2019-01-29T11:01:46.472Z,34.83
2019-01-29T11:02:46.489Z,34.83
2019-01-29T11:03:48.343Z,34.83
2019-01-29T11:04:47.430Z,35.03
2019-01-29T11:05:46.841Z,34.63
2019-01-29T11:06:46.384Z,34.91
2019-01-29T11:07:46.431Z,34.13
2019-01-29T11:08:51.535Z,34.41
2019-01-29T11:09:48.420Z,34.21
2019-01-29T11:10:46.352Z,34.61
2019-01-29T11:11:46.505Z,33.12
2019-01-29T11:12:46.383Z,33.12
2019-01-29T11:13:46.355Z,33.22
2019-01-29T11:14:46.317Z,33.61
2019-01-29T11:15:46.279Z,32.92
2019-01-29T11:16:46.272Z,33.12
2019-01-29T11:17:46.389Z,32.92
2019-01-29T11:18:46.377Z,32.70
2019-01-29T11:19:46.297Z,32.71
2019-01-29T11:20:46.325Z,33.22
2019-01-29T11:21:46.285Z,33.12
2019-01-29T11:22:46.469Z,33.01
2019-01-29T11:23:46.298Z,32.62
2019-01-29T11:24:46.239Z,32.62
2019-01-29T11:25:46.424Z,33.22
2019-01-29T11:26:46.221Z,32.40
2019-01-29T11:27:46.489Z,32.42
2019-01-29T11:28:46.161Z,33.10
2019-01-29T11:29:46.172Z,32.52
2019-01-29T11:30:46.124Z,32.70
2019-01-29T11:31:46.107Z,32.90
2019-01-29T11:32:46.162Z,32.52
2019-01-29T11:33:46.327Z,32.60
2019-01-29T11:34:46.346Z,33.22
2019-01-29T11:35:46.130Z,33.03
2019-01-29T11:36:46.058Z,33.43
2019-01-29T11:37:46.090Z,33.83
2019-01-29T11:38:46.061Z,33.45
2019-01-29T11:39:46.174Z,33.54
2019-01-29T11:40:46.030Z,33.35
2019-01-29T11:41:46.175Z,33.63
2019-01-29T11:42:47.096Z,34.03
2019-01-29T11:43:45.981Z,33.13
2019-01-29T11:44:45.989Z,33.35
2019-01-29T11:45:45.964Z,33.54
2019-01-29T11:46:45.951Z,33.25
2019-01-29T11:47:45.963Z,33.36
2019-01-29T11:48:45.977Z,33.45
2019-01-29T11:49:45.913Z,33.84
2019-01-29T11:50:45.919Z,33.35
2019-01-29T11:51:45.925Z,33.65
2019-01-29T11:52:45.973Z,33.45
2019-01-29T11:53:45.951Z,33.54
2019-01-29T11:54:45.858Z,32.85
2019-01-29T11:55:45.888Z,33.25
2019-01-29T11:56:45.836Z,32.95
2019-01-29T11:57:46.929Z,33.23
2019-01-29T11:58:45.856Z,33.33
2019-01-29T11:59:45.834Z,33.03
2019-01-29T12:00:45.791Z,32.33
2019-01-29T12:01:45.779Z,32.73
2019-01-29T12:02:45.767Z,32.45
2019-01-29T12:03:46.450Z,32.85
2019-01-29T12:04:45.757Z,32.45
2019-01-29T12:05:45.808Z,32.67
2019-01-29T12:06:45.731Z,33.06
2019-01-29T12:07:45.735Z,32.85
2019-01-29T12:08:45.748Z,32.75
2019-01-29T12:09:45.715Z,31.65
2019-01-29T12:10:45.685Z,32.17
2019-01-29T12:11:45.676Z,32.56
2019-01-29T12:12:45.688Z,33.06
2019-01-29T12:13:45.723Z,32.76
2019-01-29T12:14:45.641Z,32.76
2019-01-29T12:15:45.640Z,32.76
2019-01-29T12:16:45.623Z,32.18
2019-01-29T12:17:45.681Z,33.26
2019-01-29T12:18:45.716Z,31.78
2019-01-29T12:19:45.637Z,31.37
2019-01-29T12:20:45.630Z,31.88
2019-01-29T12:21:45.615Z,31.78
2019-01-29T12:22:45.580Z,31.78
2019-01-29T12:23:45.698Z,30.58
2019-01-29T12:24:45.631Z,31.48
2019-01-29T12:25:45.595Z,31.99
2019-01-29T12:26:45.556Z,31.88
2019-01-29T12:27:45.525Z,32.08
2019-01-29T12:28:45.633Z,31.78
2019-01-29T12:29:45.479Z,32.08
2019-01-29T12:30:45.467Z,31.98
2019-01-29T12:31:45.633Z,31.48
2019-01-29T12:32:45.752Z,31.59
2019-01-29T12:33:45.470Z,31.99
2019-01-29T12:34:45.423Z,31.70
2019-01-29T12:35:45.425Z,32.29
2019-01-29T12:36:45.423Z,33.00
2019-01-29T12:37:45.415Z,31.79
2019-01-29T12:38:45.420Z,31.99
2019-01-29T12:39:45.419Z,31.79
2019-01-29T12:40:45.381Z,31.70
2019-01-29T12:41:45.837Z,30.49
2019-01-29T12:42:45.359Z,30.60
2019-01-29T12:43:45.821Z,31.59
2019-01-29T12:44:45.393Z,30.40
2019-01-29T12:45:45.304Z,32.09
2019-01-29T12:46:45.300Z,31.21
2019-01-29T12:47:45.278Z,31.79
2019-01-29T12:48:45.390Z,31.20
2019-01-29T12:49:45.292Z,31.29
2019-01-29T12:50:45.251Z,30.31
2019-01-29T12:51:45.241Z,31.41
2019-01-29T12:52:45.237Z,30.31
2019-01-29T12:53:45.273Z,30.61